createdAt,value
2019-04-19T00:01:02.705Z,6.57
2019-04-19T00:03:31.205Z,6.43
2019-04-19T00:06:15.157Z,5.80
2019-04-19T00:09:01.534Z,5.33
2019-04-19T00:11:21.174Z,5.60
2019-04-19T00:13:40.805Z,5.33
2019-04-19T00:16:10.799Z,5.20
2019-04-19T00:18:46.099Z,4.60
2019-04-19T00:21:24.906Z,4.57
2019-04-19T00:23:43.269Z,5.30
2019-04-19T00:26:08.732Z,5.30
2019-04-19T00:28:47.029Z,5.20
2019-04-19T00:31:23.933Z,5.30
2019-04-19T00:33:41.714Z,5.40
2019-04-19T00:36:07.426Z,8.83
2019-04-19T00:38:51.927Z,5.13
2019-04-19T00:41:28.196Z,7.57
2019-04-19T00:44:05.150Z,5.07
2019-04-19T00:46:38.143Z,4.90
2019-04-19T00:49:03.095Z,5.60
2019-04-19T00:51:40.934Z,5.00
2019-04-19T00:53:59.778Z,5.03
2019-04-19T00:56:33.646Z,7.70
2019-04-19T00:58:56.576Z,5.23
2019-04-19T01:01:24.797Z,6.37
2019-04-19T01:03:52.149Z,5.20
2019-04-19T01:06:21.651Z,6.30
2019-04-19T01:08:57.444Z,5.43
2019-04-19T01:11:31.823Z,5.50
2019-04-19T01:14:00.912Z,5.80
2019-04-19T01:16:26.654Z,5.27
2019-04-19T01:18:57.256Z,4.73
2019-04-19T01:21:17.395Z,5.30
2019-04-19T01:23:49.866Z,5.77
2019-04-19T01:26:16.515Z,5.57
2019-04-19T01:28:55.783Z,5.47
2019-04-19T01:31:17.696Z,5.17
2019-04-19T01:33:45.760Z,5.40
2019-04-19T01:36:14.607Z,6.30
2019-04-19T01:38:47.982Z,6.30
2019-04-19T01:41:30.937Z,6.20
2019-04-19T01:44:06.665Z,6.03
2019-04-19T01:46:52.517Z,6.27
2019-04-19T01:49:46.561Z,5.97
2019-04-19T01:52:20.583Z,5.30
2019-04-19T01:54:45.420Z,5.40
2019-04-19T01:57:02.573Z,6.50
2019-04-19T01:59:33.192Z,6.60
2019-04-19T02:02:03.840Z,6.37
2019-04-19T02:04:30.038Z,5.40
2019-04-19T02:06:58.324Z,6.03
2019-04-19T02:09:36.471Z,6.37
2019-04-19T02:12:16.856Z,6.00
2019-04-19T02:14:37.640Z,6.27
2019-04-19T02:17:03.144Z,6.17
2019-04-19T02:19:31.368Z,6.57
2019-04-19T02:22:02.060Z,5.70
2019-04-19T02:24:35.168Z,7.23
2019-04-19T02:27:03.306Z,5.87
2019-04-19T02:29:31.149Z,6.20
2019-04-19T02:32:17.636Z,6.33
2019-04-19T02:34:47.509Z,6.50
2019-04-19T02:42:40.620Z,5.27
2019-04-19T02:47:30.699Z,8.27
2019-04-19T02:52:31.438Z,6.43
2019-04-19T02:58:18.128Z,6.00
2019-04-19T03:03:39.506Z,7.40
2019-04-19T03:05:55.971Z,6.50
2019-04-19T03:08:06.403Z,6.43
2019-04-19T03:10:51.254Z,6.60
2019-04-19T03:13:17.321Z,8.10
2019-04-19T03:15:54.150Z,6.60
2019-04-19T03:18:35.881Z,6.10
2019-04-19T03:20:44.576Z,5.83
2019-04-19T03:23:19.304Z,6.33
2019-04-19T03:25:45.323Z,6.57
2019-04-19T03:28:10.842Z,6.70
2019-04-19T03:31:01.439Z,5.80
2019-04-19T03:33:25.200Z,6.27
2019-04-19T03:35:53.983Z,6.30
2019-04-19T03:38:15.672Z,6.73
2019-04-19T03:40:50.861Z,6.50
2019-04-19T03:43:38.396Z,5.97
2019-04-19T03:48:37.793Z,6.17
2019-04-19T03:51:07.120Z,6.33
2019-04-19T03:53:38.531Z,5.83
2019-04-19T03:56:06.423Z,6.70
2019-04-19T03:58:17.016Z,6.03
2019-04-19T04:00:44.966Z,5.83
2019-04-19T04:03:23.627Z,6.70
2019-04-19T04:05:47.485Z,7.60
2019-04-19T04:08:21.496Z,6.53
2019-04-19T04:11:09.104Z,5.87
2019-04-19T04:13:55.711Z,6.90
2019-04-19T04:16:24.729Z,6.00
2019-04-19T04:18:44.723Z,6.20
2019-04-19T04:21:14.086Z,5.97
2019-04-19T04:23:46.343Z,7.73
2019-04-19T04:26:16.207Z,6.47
2019-04-19T04:28:57.916Z,6.70
2019-04-19T04:31:22.749Z,6.73
2019-04-19T04:33:55.936Z,6.50
2019-04-19T04:36:33.033Z,7.07
2019-04-19T04:38:46.258Z,6.67
2019-04-19T04:41:20.077Z,7.60
2019-04-19T04:44:04.651Z,7.20
2019-04-19T04:46:56.787Z,8.23
2019-04-19T04:49:43.532Z,8.07
2019-04-19T04:52:14.532Z,5.97
2019-04-19T04:54:33.409Z,7.37
2019-04-19T04:57:28.136Z,6.83
2019-04-19T04:59:52.699Z,6.13
2019-04-19T05:02:31.371Z,7.27
2019-04-19T05:05:10.061Z,6.80
2019-04-19T05:07:46.282Z,6.90
2019-04-19T05:10:06.380Z,7.33
2019-04-19T05:13:01.187Z,6.00
2019-04-19T05:14:59.330Z,6.63
2019-04-19T05:17:46.134Z,6.27
2019-04-19T05:20:09.256Z,6.30
2019-04-19T05:22:31.701Z,7.30
2019-04-19T05:25:12.246Z,7.70
2019-04-19T05:27:41.941Z,7.83
2019-04-19T05:29:51.075Z,6.60
2019-04-19T05:32:26.253Z,6.80
2019-04-19T05:35:06.979Z,7.20
2019-04-19T05:37:39.158Z,7.53
2019-04-19T05:40:15.620Z,6.40
2019-04-19T05:42:56.539Z,7.20
2019-04-19T05:45:36.687Z,5.90
2019-04-19T05:47:54.442Z,7.17
2019-04-19T05:50:45.750Z,6.70
2019-04-19T05:53:00.117Z,6.67
2019-04-19T05:55:13.180Z,7.00
2019-04-19T05:57:59.327Z,6.90
2019-04-19T06:00:27.646Z,6.53
2019-04-19T06:02:58.011Z,6.23
2019-04-19T06:05:36.372Z,6.73
2019-04-19T06:07:58.358Z,6.57
2019-04-19T06:10:15.646Z,6.73
2019-04-19T06:12:58.322Z,5.93
2019-04-19T06:15:45.118Z,6.63
2019-04-19T06:18:26.132Z,6.23
2019-04-19T06:21:07.727Z,6.33
2019-04-19T06:23:34.626Z,6.73
2019-04-19T06:26:21.667Z,5.80
2019-04-19T06:28:37.921Z,5.70
2019-04-19T06:31:03.471Z,5.97
2019-04-19T06:33:32.477Z,5.30
2019-04-19T06:35:52.310Z,5.90
2019-04-19T06:40:59.098Z,6.00
2019-04-19T06:43:36.266Z,5.83
2019-04-19T06:46:08.231Z,5.70
2019-04-19T06:48:26.683Z,6.30
2019-04-19T06:50:54.567Z,5.33
2019-04-19T06:53:20.927Z,5.73
2019-04-19T06:55:53.019Z,6.80
2019-04-19T06:58:24.857Z,5.77
2019-04-19T07:01:04.902Z,6.27
2019-04-19T07:03:19.582Z,5.80
2019-04-19T07:06:06.080Z,6.07
2019-04-19T07:08:59.410Z,6.63
2019-04-19T07:11:15.019Z,5.20
2019-04-19T07:13:32.327Z,6.23
2019-04-19T07:16:13.346Z,5.57
2019-04-19T07:18:28.940Z,5.77
2019-04-19T07:21:06.102Z,4.80
2019-04-19T07:23:42.078Z,4.93
2019-04-19T07:26:11.577Z,5.27
2019-04-19T07:28:22.998Z,4.73
2019-04-19T07:30:52.341Z,4.47
2019-04-19T07:33:27.819Z,4.37
2019-04-19T07:36:08.852Z,4.37
2019-04-19T07:38:37.249Z,4.73
2019-04-19T07:41:07.197Z,4.80
2019-04-19T07:43:29.937Z,8.07
2019-04-19T07:46:08.107Z,4.70
2019-04-19T07:48:27.914Z,4.83
2019-04-19T07:51:05.420Z,4.63
2019-04-19T07:53:33.478Z,5.30
2019-04-19T07:56:12.316Z,5.10
2019-04-19T07:59:05.660Z,4.70
2019-04-19T08:01:24.430Z,4.50
2019-04-19T08:06:32.715Z,5.73
2019-04-19T08:14:22.790Z,4.57
2019-04-19T08:17:29.174Z,4.40
2019-04-19T08:29:14.676Z,5.07
2019-04-19T08:31:26.422Z,4.70
2019-04-19T08:33:55.494Z,4.83
2019-04-19T08:36:32.283Z,5.07
2019-04-19T08:39:14.155Z,4.73
2019-04-19T08:41:39.312Z,4.43
2019-04-19T08:44:12.919Z,4.47
2019-04-19T08:46:30.181Z,3.50
2019-04-19T08:49:06.299Z,4.73
2019-04-19T08:51:48.857Z,5.07
2019-04-19T08:54:37.442Z,4.30
2019-04-19T08:56:55.954Z,4.50
2019-04-19T08:59:38.744Z,4.73
2019-04-19T09:02:05.039Z,5.10
2019-04-19T09:04:34.829Z,5.70
2019-04-19T09:07:34.068Z,5.40
2019-04-19T09:09:35.283Z,4.00
2019-04-19T09:12:01.488Z,5.10
2019-04-19T09:14:38.096Z,4.70
2019-04-19T09:17:08.650Z,5.03
2019-04-19T09:19:58.934Z,4.53
2019-04-19T09:21:57.729Z,4.77
2019-04-19T09:24:22.834Z,4.07
2019-04-19T09:27:00.388Z,5.17
2019-04-19T09:29:33.601Z,5.10
2019-04-19T09:31:51.892Z,5.30
2019-04-19T09:34:16.488Z,4.50
2019-04-19T09:36:51.953Z,5.67
2019-04-19T09:39:30.242Z,5.13
2019-04-19T09:41:47.711Z,4.90
2019-04-19T09:44:19.531Z,4.30
2019-04-19T09:46:40.660Z,4.43
2019-04-19T09:49:23.528Z,4.30
2019-04-19T09:51:52.849Z,5.13
2019-04-19T09:54:32.546Z,5.17
2019-04-19T09:56:53.993Z,4.77
2019-04-19T09:59:17.871Z,4.37
2019-04-19T10:01:42.624Z,4.87
2019-04-19T10:04:08.102Z,4.47
2019-04-19T10:06:36.091Z,5.20
2019-04-19T10:09:12.690Z,5.30
2019-04-19T10:11:35.516Z,4.60
2019-04-19T10:14:04.367Z,5.10
2019-04-19T10:16:52.759Z,5.93
2019-04-19T10:19:20.985Z,4.90
2019-04-19T10:22:02.387Z,5.03
2019-04-19T10:24:31.444Z,4.87
2019-04-19T10:27:37.784Z,5.13
2019-04-19T10:30:08.649Z,5.47
2019-04-19T10:32:38.498Z,4.50
2019-04-19T10:35:07.345Z,5.60
2019-04-19T10:37:35.728Z,4.93
2019-04-19T10:40:05.870Z,4.90
2019-04-19T10:42:33.971Z,4.93
2019-04-19T10:45:02.531Z,4.70
2019-04-19T10:47:31.636Z,5.77
2019-04-19T10:50:14.212Z,4.53
2019-04-19T10:52:29.543Z,5.40
2019-04-19T10:54:57.618Z,5.57
2019-04-19T10:57:25.623Z,5.37
2019-04-19T10:59:56.480Z,5.67
2019-04-19T11:02:29.789Z,5.00
2019-04-19T11:04:58.747Z,5.30
2019-04-19T11:07:27.577Z,5.90
2019-04-19T11:09:57.604Z,5.57
2019-04-19T11:12:26.146Z,5.67
2019-04-19T11:14:54.694Z,6.40
2019-04-19T11:17:23.345Z,6.07
2019-04-19T11:20:08.418Z,6.37
2019-04-19T11:22:21.548Z,6.27
2019-04-19T11:24:50.040Z,5.87
2019-04-19T11:27:19.235Z,6.30
2019-04-19T11:29:47.410Z,5.83
2019-04-19T11:32:52.752Z,6.20
2019-04-19T11:35:21.500Z,6.43
2019-04-19T11:37:49.437Z,6.07
2019-04-19T11:40:17.495Z,6.00
2019-04-19T11:42:45.645Z,6.43
2019-04-19T11:45:13.618Z,6.13
2019-04-19T11:47:42.892Z,6.43
2019-04-19T11:50:11.719Z,7.00
2019-04-19T11:53:06.036Z,6.13
2019-04-19T11:55:36.140Z,6.10
2019-04-19T11:58:04.260Z,6.30
2019-04-19T12:00:50.338Z,6.70
2019-04-19T12:03:22.342Z,5.73
2019-04-19T12:05:50.410Z,6.50
2019-04-19T12:08:18.471Z,5.67
2019-04-19T12:10:46.523Z,7.00
2019-04-19T12:13:15.171Z,6.23
2019-04-19T12:15:44.980Z,6.33
2019-04-19T12:18:12.806Z,6.00
2019-04-19T12:20:40.672Z,6.07
2019-04-19T12:23:09.653Z,5.90
2019-04-19T12:25:37.633Z,5.67
2019-04-19T12:28:05.684Z,5.00
2019-04-19T12:30:33.676Z,5.70
2019-04-19T12:33:01.597Z,5.43
2019-04-19T12:35:29.750Z,5.60
2019-04-19T12:37:57.892Z,6.13
2019-04-19T12:40:25.845Z,5.43
2019-04-19T12:42:53.967Z,5.50
2019-04-19T12:45:22.057Z,6.13
2019-04-19T12:47:51.271Z,6.10
2019-04-19T12:50:19.885Z,5.33
2019-04-19T12:52:48.573Z,5.83
2019-04-19T12:55:19.847Z,5.60
2019-04-19T12:57:56.224Z,5.70
2019-04-19T13:00:25.970Z,5.73
2019-04-19T13:02:58.116Z,5.73
2019-04-19T13:05:37.529Z,5.20
2019-04-19T13:08:05.761Z,6.63
2019-04-19T13:10:35.227Z,6.33
2019-04-19T13:13:03.813Z,5.90
2019-04-19T13:15:32.228Z,9.50
2019-04-19T13:18:00.351Z,5.87
2019-04-19T13:20:32.545Z,6.80
2019-04-19T13:22:58.656Z,5.60
2019-04-19T13:25:29.205Z,5.20
2019-04-19T13:27:59.623Z,6.50
2019-04-19T13:30:34.627Z,6.03
2019-04-19T13:32:56.696Z,5.93
2019-04-19T13:35:25.424Z,6.03
2019-04-19T13:38:15.325Z,6.20
2019-04-19T13:41:02.927Z,6.23
2019-04-19T13:43:35.208Z,5.97
2019-04-19T13:46:04.414Z,5.93
2019-04-19T13:48:32.559Z,6.73
2019-04-19T13:51:00.557Z,6.20
2019-04-19T13:53:32.893Z,5.43
2019-04-19T13:56:00.880Z,5.27
2019-04-19T13:58:29.676Z,5.80
2019-04-19T14:00:58.451Z,5.73
2019-04-19T14:03:27.566Z,5.30
2019-04-19T14:05:56.724Z,4.83
2019-04-19T14:08:27.858Z,5.50
2019-04-19T14:10:55.599Z,5.00
2019-04-19T14:13:25.189Z,5.50
2019-04-19T14:15:58.792Z,4.70
2019-04-19T14:18:27.284Z,5.07
2019-04-19T14:20:56.256Z,4.57
2019-04-19T14:23:25.768Z,4.60
2019-04-19T14:25:54.980Z,4.70
2019-04-19T14:28:23.261Z,5.80
2019-04-19T14:30:52.894Z,4.90
2019-04-19T14:33:23.089Z,4.70
2019-04-19T14:35:51.947Z,4.87
2019-04-19T14:38:21.409Z,5.10
2019-04-19T14:40:51.341Z,4.53
2019-04-19T14:43:20.495Z,4.50
2019-04-19T14:45:50.584Z,4.83
2019-04-19T14:48:24.598Z,4.43
2019-04-19T14:50:57.803Z,3.80
2019-04-19T14:53:20.210Z,4.87
2019-04-19T14:55:48.332Z,4.53
2019-04-19T14:58:16.240Z,3.97
2019-04-19T15:01:01.050Z,3.97
2019-04-19T15:03:30.684Z,4.33
2019-04-19T15:05:59.720Z,4.53
2019-04-19T15:08:29.013Z,4.13
2019-04-19T15:10:57.673Z,3.90
2019-04-19T15:13:25.631Z,4.50
2019-04-19T15:15:54.175Z,4.47
2019-04-19T15:18:23.306Z,4.13
2019-04-19T15:20:56.955Z,4.33
2019-04-19T15:23:22.438Z,4.00
2019-04-19T15:25:50.804Z,4.30
2019-04-19T15:28:19.019Z,3.77
2019-04-19T15:30:48.120Z,4.43
2019-04-19T15:33:16.385Z,4.17
2019-04-19T15:35:45.661Z,3.80
2019-04-19T15:38:14.055Z,4.27
2019-04-19T15:40:42.085Z,4.23
2019-04-19T15:43:10.801Z,4.30
2019-04-19T15:45:39.047Z,4.07
2019-04-19T15:48:07.107Z,3.90
2019-04-19T15:50:36.036Z,3.50
2019-04-19T15:53:04.333Z,4.30
2019-04-19T15:55:32.346Z,4.60
2019-04-19T15:58:00.197Z,4.20
2019-04-19T16:00:38.093Z,3.70
2019-04-19T16:03:28.414Z,4.47
2019-04-19T16:06:02.232Z,4.33
2019-04-19T16:08:36.726Z,4.40
2019-04-19T16:11:22.744Z,4.07
2019-04-19T16:13:51.868Z,3.73
2019-04-19T16:16:22.807Z,3.83
2019-04-19T16:18:49.904Z,4.40
2019-04-19T16:21:26.015Z,3.73
2019-04-19T16:23:49.040Z,3.73
2019-04-19T16:26:17.083Z,4.07
2019-04-19T16:28:46.044Z,3.73
2019-04-19T16:31:14.642Z,4.67
2019-04-19T16:33:43.865Z,4.20
2019-04-19T16:36:12.680Z,3.63
2019-04-19T16:38:40.675Z,4.17
2019-04-19T16:41:08.705Z,3.40
2019-04-19T16:43:37.674Z,6.30
2019-04-19T16:46:14.582Z,3.60
2019-04-19T16:48:36.682Z,6.43
2019-04-19T16:51:06.440Z,3.97
2019-04-19T16:53:35.905Z,3.60
2019-04-19T16:56:07.770Z,3.30
2019-04-19T16:58:36.947Z,3.57
2019-04-19T17:01:04.956Z,3.63
2019-04-19T17:03:33.681Z,3.70
2019-04-19T17:06:02.526Z,3.40
2019-04-19T17:08:32.067Z,3.20
2019-04-19T17:11:00.217Z,3.20
2019-04-19T17:13:28.842Z,3.70
2019-04-19T17:16:19.697Z,3.63
2019-04-19T17:19:10.809Z,3.40
2019-04-19T17:21:50.574Z,3.57
2019-04-19T17:24:09.259Z,3.83
2019-04-19T17:26:37.369Z,3.80
2019-04-19T17:29:06.686Z,3.83
2019-04-19T17:31:36.099Z,3.40
2019-04-19T17:34:08.429Z,4.30
2019-04-19T17:36:36.431Z,3.67
2019-04-19T17:39:06.702Z,3.13
2019-04-19T17:41:34.617Z,3.27
2019-04-19T17:44:03.640Z,4.90
2019-04-19T17:46:32.714Z,3.40
2019-04-19T17:49:00.804Z,2.90
2019-04-19T17:51:35.707Z,3.13
2019-04-19T17:54:03.760Z,4.00
2019-04-19T17:56:31.710Z,3.00
2019-04-19T17:59:00.316Z,2.67
2019-04-19T18:01:28.479Z,3.30
2019-04-19T18:03:59.019Z,4.33
2019-04-19T18:06:28.077Z,3.00
2019-04-19T18:09:02.344Z,2.80
2019-04-19T18:11:30.385Z,3.50
2019-04-19T18:13:55.399Z,3.20
2019-04-19T18:16:24.738Z,3.77
2019-04-19T18:18:57.183Z,3.37
2019-04-19T18:21:23.910Z,3.20
2019-04-19T18:24:00.865Z,3.60
2019-04-19T18:26:28.387Z,3.40
2019-04-19T18:28:53.032Z,2.50
2019-04-19T18:31:27.609Z,3.20
2019-04-19T18:34:01.627Z,3.20
2019-04-19T18:36:25.230Z,3.20
2019-04-19T18:38:51.662Z,3.20
2019-04-19T18:41:21.022Z,5.00
2019-04-19T18:44:03.231Z,4.40
2019-04-19T18:46:18.732Z,3.33
2019-04-19T18:48:47.439Z,3.17
2019-04-19T18:51:20.827Z,3.83
2019-04-19T18:53:58.336Z,4.00
2019-04-19T18:56:19.460Z,3.30
2019-04-19T18:58:44.389Z,3.10
2019-04-19T19:01:21.256Z,3.10
2019-04-19T19:03:45.181Z,4.07
2019-04-19T19:06:12.786Z,4.03
2019-04-19T19:08:48.599Z,2.93
2019-04-19T19:11:16.367Z,3.47
2019-04-19T19:13:41.141Z,3.90
2019-04-19T19:16:11.624Z,5.27
2019-04-19T19:18:46.783Z,3.07
2019-04-19T19:21:12.760Z,3.27
2019-04-19T19:23:57.304Z,3.90
2019-04-19T19:26:18.182Z,3.77
2019-04-19T19:28:40.224Z,2.90
2019-04-19T19:31:09.141Z,3.30
2019-04-19T19:33:44.419Z,3.60
2019-04-19T19:36:07.255Z,3.43
2019-04-19T19:38:38.622Z,3.60
2019-04-19T19:41:16.606Z,3.80
2019-04-19T19:43:48.767Z,4.30
2019-04-19T19:46:25.997Z,3.63
2019-04-19T19:49:07.921Z,4.20
2019-04-19T19:51:20.422Z,3.83
2019-04-19T19:56:36.456Z,3.73
2019-04-19T19:58:41.738Z,5.13
2019-04-19T20:01:22.172Z,3.40
2019-04-19T20:03:42.009Z,3.97
2019-04-19T20:06:11.423Z,2.50
2019-04-19T20:08:39.164Z,3.30
2019-04-19T20:11:04.306Z,3.83
2019-04-19T20:13:35.909Z,2.73
2019-04-19T20:16:02.946Z,3.50
2019-04-19T20:18:38.644Z,3.60
2019-04-19T20:21:00.819Z,4.67
2019-04-19T20:23:35.360Z,4.10
2019-04-19T20:26:09.569Z,4.27
2019-04-19T20:28:33.320Z,3.63
2019-04-19T20:31:02.509Z,3.80
2019-04-19T20:33:38.265Z,4.20
2019-04-19T20:36:04.300Z,3.63
2019-04-19T20:38:42.107Z,4.80
2019-04-19T20:41:04.874Z,3.40
2019-04-19T20:43:45.893Z,4.27
2019-04-19T20:46:09.694Z,4.27
2019-04-19T20:48:31.730Z,3.53
2019-04-19T20:51:15.615Z,3.60
2019-04-19T20:53:55.234Z,3.33
2019-04-19T20:56:48.073Z,4.00
2019-04-19T20:58:52.105Z,3.40
2019-04-19T21:01:16.878Z,4.00
2019-04-19T21:03:45.858Z,3.20
2019-04-19T21:06:22.102Z,3.60
2019-04-19T21:08:46.468Z,4.13
2019-04-19T21:11:13.257Z,6.93
2019-04-19T21:13:45.866Z,3.20
2019-04-19T21:16:12.126Z,4.13
2019-04-19T21:18:41.284Z,5.23
2019-04-19T21:21:13.095Z,3.33
2019-04-19T21:23:40.513Z,3.40
2019-04-19T21:26:14.780Z,3.27
2019-04-19T21:28:45.384Z,3.40
2019-04-19T21:31:09.272Z,3.87
2019-04-19T21:33:39.637Z,5.37
2019-04-19T21:36:11.306Z,5.37
2019-04-19T21:38:40.191Z,3.30
2019-04-19T21:41:14.239Z,3.60
2019-04-19T21:43:40.703Z,3.43
2019-04-19T21:46:08.000Z,3.00
2019-04-19T21:48:39.560Z,3.73
2019-04-19T21:51:06.029Z,4.33
2019-04-19T21:53:39.838Z,4.10
2019-04-19T21:56:12.135Z,3.87
2019-04-19T21:58:36.002Z,4.00
2019-04-19T22:01:11.733Z,3.70
2019-04-19T22:03:36.526Z,3.60
2019-04-19T22:06:12.311Z,3.57
2019-04-19T22:08:37.001Z,4.00
2019-04-19T22:11:04.504Z,3.83
2019-04-19T22:13:39.130Z,3.60
2019-04-19T22:16:03.846Z,4.13
2019-04-19T22:18:38.734Z,4.03
2019-04-19T22:21:04.754Z,3.63
2019-04-19T22:23:34.478Z,3.60
2019-04-19T22:26:14.457Z,3.50
2019-04-19T22:28:30.340Z,4.13
2019-04-19T22:31:00.198Z,4.60
2019-04-19T22:33:28.248Z,3.60
2019-04-19T22:36:00.223Z,7.10
2019-04-19T22:38:25.849Z,3.40
2019-04-19T22:40:54.711Z,4.00
2019-04-19T22:43:22.782Z,4.10
2019-04-19T22:46:00.072Z,3.47
2019-04-19T22:48:22.914Z,3.83
2019-04-19T22:50:50.691Z,3.20
2019-04-19T22:53:24.036Z,3.60
2019-04-19T22:55:59.233Z,4.70
2019-04-19T22:58:24.158Z,3.80
2019-04-19T23:00:49.412Z,3.90
2019-04-19T23:03:39.848Z,5.43
2019-04-19T23:06:05.859Z,4.00
2019-04-19T23:08:39.016Z,4.07
2019-04-19T23:11:06.451Z,3.60
2019-04-19T23:13:33.861Z,4.10
2019-04-19T23:16:06.459Z,3.70
2019-04-19T23:18:32.483Z,3.90
2019-04-19T23:21:09.548Z,4.00
2019-04-19T23:23:33.069Z,3.90
2019-04-19T23:26:15.536Z,4.70
2019-04-19T23:28:33.978Z,4.00
2019-04-19T23:31:08.424Z,4.00
2019-04-19T23:33:30.110Z,4.40
2019-04-19T23:35:59.481Z,4.93
2019-04-19T23:38:29.753Z,9.50
2019-04-19T23:40:57.333Z,7.53
2019-04-19T23:43:33.551Z,5.87
2019-04-19T23:45:55.731Z,7.10
2019-04-19T23:48:29.264Z,5.27
2019-04-19T23:50:54.568Z,5.03
2019-04-19T23:53:30.031Z,6.00
2019-04-19T23:55:52.354Z,4.50
2019-04-19T23:58:28.554Z,5.60
